sensor_id;sensor_type;location;lat;lon;timestamp;P1;durP1;ratioP1;P2;durP2;ratioP2
66874;SDS011;53784;52.630;4.896;2023-04-15T00:01:23;7.28;;;4.10;;
66874;SDS011;53784;52.630;4.896;2023-04-15T00:03:50;10.05;;;4.20;;
66874;SDS011;53784;52.630;4.896;2023-04-15T00:06:16;8.85;;;4.35;;
66874;SDS011;53784;52.630;4.896;2023-04-15T00:08:41;9.30;;;4.37;;
66874;SDS011;53784;52.630;4.896;2023-04-15T00:11:07;9.23;;;4.30;;
66874;SDS011;53784;52.630;4.896;2023-04-15T00:13:32;8.43;;;4.70;;
66874;SDS011;53784;52.630;4.896;2023-04-15T00:16:00;10.52;;;4.22;;
66874;SDS011;53784;52.630;4.896;2023-04-15T00:18:26;9.93;;;4.63;;
66874;SDS011;53784;52.630;4.896;2023-04-15T00:20:51;8.70;;;4.45;;
66874;SDS011;53784;52.630;4.896;2023-04-15T00:23:17;9.90;;;4.40;;
66874;SDS011;53784;52.630;4.896;2023-04-15T00:25:42;11.65;;;4.40;;
66874;SDS011;53784;52.630;4.896;2023-04-15T00:28:08;11.20;;;4.35;;
66874;SDS011;53784;52.630;4.896;2023-04-15T00:30:33;9.40;;;4.45;;
66874;SDS011;53784;52.630;4.896;2023-04-15T00:32:59;9.48;;;4.60;;
66874;SDS011;53784;52.630;4.896;2023-04-15T00:35:26;11.05;;;4.60;;
66874;SDS011;53784;52.630;4.896;2023-04-15T00:37:51;8.47;;;4.77;;
66874;SDS011;53784;52.630;4.896;2023-04-15T00:40:16;9.63;;;4.47;;
66874;SDS011;53784;52.630;4.896;2023-04-15T00:42:42;10.93;;;4.75;;
66874;SDS011;53784;52.630;4.896;2023-04-15T00:45:08;7.30;;;4.25;;
66874;SDS011;53784;52.630;4.896;2023-04-15T00:47:34;11.82;;;4.90;;
66874;SDS011;53784;52.630;4.896;2023-04-15T00:50:01;8.70;;;4.80;;
66874;SDS011;53784;52.630;4.896;2023-04-15T00:52:26;8.77;;;5.05;;
66874;SDS011;53784;52.630;4.896;2023-04-15T00:54:51;11.33;;;4.73;;
66874;SDS011;53784;52.630;4.896;2023-04-15T00:57:17;11.80;;;4.60;;
66874;SDS011;53784;52.630;4.896;2023-04-15T00:59:42;8.65;;;4.50;;
66874;SDS011;53784;52.630;4.896;2023-04-15T01:02:08;12.53;;;4.87;;
66874;SDS011;53784;52.630;4.896;2023-04-15T01:04:33;11.23;;;4.93;;
66874;SDS011;53784;52.630;4.896;2023-04-15T01:06:58;8.53;;;4.97;;
66874;SDS011;53784;52.630;4.896;2023-04-15T01:09:23;11.10;;;4.93;;
66874;SDS011;53784;52.630;4.896;2023-04-15T01:11:48;10.13;;;4.72;;
66874;SDS011;53784;52.630;4.896;2023-04-15T01:14:13;11.70;;;5.00;;
66874;SDS011;53784;52.630;4.896;2023-04-15T01:16:39;9.37;;;4.47;;
66874;SDS011;53784;52.630;4.896;2023-04-15T01:19:05;9.82;;;4.85;;
66874;SDS011;53784;52.630;4.896;2023-04-15T01:21:33;9.50;;;4.65;;
66874;SDS011;53784;52.630;4.896;2023-04-15T01:24:00;11.00;;;5.22;;
66874;SDS011;53784;52.630;4.896;2023-04-15T01:26:26;8.52;;;4.88;;
66874;SDS011;53784;52.630;4.896;2023-04-15T01:28:52;9.38;;;4.78;;
66874;SDS011;53784;52.630;4.896;2023-04-15T01:31:17;12.07;;;6.00;;
66874;SDS011;53784;52.630;4.896;2023-04-15T01:33:42;10.68;;;4.93;;
66874;SDS011;53784;52.630;4.896;2023-04-15T01:36:07;7.93;;;4.77;;
66874;SDS011;53784;52.630;4.896;2023-04-15T01:38:34;9.45;;;4.90;;
66874;SDS011;53784;52.630;4.896;2023-04-15T01:40:59;10.55;;;4.80;;
66874;SDS011;53784;52.630;4.896;2023-04-15T01:43:25;8.95;;;4.82;;
66874;SDS011;53784;52.630;4.896;2023-04-15T01:45:50;8.82;;;4.88;;
66874;SDS011;53784;52.630;4.896;2023-04-15T01:48:16;9.88;;;4.90;;
66874;SDS011;53784;52.630;4.896;2023-04-15T01:50:41;11.93;;;5.18;;
66874;SDS011;53784;52.630;4.896;2023-04-15T01:53:07;10.48;;;5.30;;
66874;SDS011;53784;52.630;4.896;2023-04-15T01:55:32;8.95;;;4.80;;
66874;SDS011;53784;52.630;4.896;2023-04-15T01:57:57;13.05;;;5.50;;
66874;SDS011;53784;52.630;4.896;2023-04-15T02:00:22;10.60;;;5.20;;
66874;SDS011;53784;52.630;4.896;2023-04-15T02:02:48;11.00;;;5.40;;
66874;SDS011;53784;52.630;4.896;2023-04-15T02:05:14;10.77;;;4.93;;
66874;SDS011;53784;52.630;4.896;2023-04-15T02:07:41;12.23;;;5.53;;
66874;SDS011;53784;52.630;4.896;2023-04-15T02:10:06;13.20;;;5.80;;
66874;SDS011;53784;52.630;4.896;2023-04-15T02:12:31;11.65;;;5.63;;
66874;SDS011;53784;52.630;4.896;2023-04-15T02:14:56;12.10;;;5.30;;
66874;SDS011;53784;52.630;4.896;2023-04-15T02:17:22;8.27;;;4.97;;
66874;SDS011;53784;52.630;4.896;2023-04-15T02:19:47;12.50;;;5.17;;
66874;SDS011;53784;52.630;4.896;2023-04-15T02:22:12;11.23;;;5.38;;
66874;SDS011;53784;52.630;4.896;2023-04-15T02:24:42;9.40;;;5.28;;
66874;SDS011;53784;52.630;4.896;2023-04-15T02:27:07;9.23;;;5.32;;
66874;SDS011;53784;52.630;4.896;2023-04-15T02:29:32;12.60;;;5.55;;
66874;SDS011;53784;52.630;4.896;2023-04-15T02:31:57;11.27;;;5.07;;
66874;SDS011;53784;52.630;4.896;2023-04-15T02:34:22;11.67;;;5.30;;
66874;SDS011;53784;52.630;4.896;2023-04-15T02:36:48;9.17;;;5.00;;
66874;SDS011;53784;52.630;4.896;2023-04-15T02:39:13;14.05;;;5.53;;
66874;SDS011;53784;52.630;4.896;2023-04-15T02:41:40;11.40;;;5.30;;
66874;SDS011;53784;52.630;4.896;2023-04-15T02:44:07;10.20;;;5.40;;
66874;SDS011;53784;52.630;4.896;2023-04-15T02:46:33;9.68;;;5.22;;
66874;SDS011;53784;52.630;4.896;2023-04-15T02:48:58;8.63;;;4.77;;
66874;SDS011;53784;52.630;4.896;2023-04-15T02:51:24;9.27;;;5.00;;
66874;SDS011;53784;52.630;4.896;2023-04-15T02:53:49;10.15;;;5.05;;
66874;SDS011;53784;52.630;4.896;2023-04-15T02:56:15;9.25;;;5.15;;
66874;SDS011;53784;52.630;4.896;2023-04-15T02:58:41;8.95;;;5.10;;
66874;SDS011;53784;52.630;4.896;2023-04-15T03:01:07;11.55;;;5.43;;
66874;SDS011;53784;52.630;4.896;2023-04-15T03:03:33;8.73;;;5.10;;
66874;SDS011;53784;52.630;4.896;2023-04-15T03:05:58;10.15;;;5.57;;
66874;SDS011;53784;52.630;4.896;2023-04-15T03:08:23;10.73;;;5.50;;
66874;SDS011;53784;52.630;4.896;2023-04-15T03:10:48;10.68;;;5.28;;
66874;SDS011;53784;52.630;4.896;2023-04-15T03:13:16;12.93;;;5.72;;
66874;SDS011;53784;52.630;4.896;2023-04-15T03:15:41;9.63;;;5.67;;
66874;SDS011;53784;52.630;4.896;2023-04-15T03:18:06;10.85;;;5.55;;
66874;SDS011;53784;52.630;4.896;2023-04-15T03:20:31;10.32;;;5.68;;
66874;SDS011;53784;52.630;4.896;2023-04-15T03:22:56;9.93;;;5.30;;
66874;SDS011;53784;52.630;4.896;2023-04-15T03:25:22;12.17;;;6.30;;
66874;SDS011;53784;52.630;4.896;2023-04-15T03:27:47;11.33;;;5.80;;
66874;SDS011;53784;52.630;4.896;2023-04-15T03:30:12;11.15;;;5.75;;
66874;SDS011;53784;52.630;4.896;2023-04-15T03:32:37;10.93;;;5.85;;
66874;SDS011;53784;52.630;4.896;2023-04-15T03:35:02;11.77;;;5.90;;
66874;SDS011;53784;52.630;4.896;2023-04-15T03:37:28;10.75;;;6.03;;
66874;SDS011;53784;52.630;4.896;2023-04-15T03:39:53;10.88;;;5.90;;
66874;SDS011;53784;52.630;4.896;2023-04-15T03:42:18;11.00;;;5.90;;
66874;SDS011;53784;52.630;4.896;2023-04-15T03:44:43;10.87;;;5.77;;
66874;SDS011;53784;52.630;4.896;2023-04-15T03:47:08;12.38;;;6.10;;
66874;SDS011;53784;52.630;4.896;2023-04-15T03:49:34;10.63;;;5.70;;
66874;SDS011;53784;52.630;4.896;2023-04-15T03:51:59;11.27;;;5.82;;
66874;SDS011;53784;52.630;4.896;2023-04-15T03:54:24;14.53;;;6.63;;
66874;SDS011;53784;52.630;4.896;2023-04-15T03:56:50;13.45;;;6.47;;
66874;SDS011;53784;52.630;4.896;2023-04-15T03:59:15;12.38;;;6.15;;
66874;SDS011;53784;52.630;4.896;2023-04-15T04:01:40;14.85;;;6.40;;
66874;SDS011;53784;52.630;4.896;2023-04-15T04:04:06;12.00;;;5.88;;
66874;SDS011;53784;52.630;4.896;2023-04-15T04:06:31;11.45;;;6.18;;
66874;SDS011;53784;52.630;4.896;2023-04-15T04:08:56;11.90;;;6.17;;
66874;SDS011;53784;52.630;4.896;2023-04-15T04:11:21;12.45;;;5.80;;
66874;SDS011;53784;52.630;4.896;2023-04-15T04:13:46;13.53;;;5.53;;
66874;SDS011;53784;52.630;4.896;2023-04-15T04:16:11;12.07;;;5.40;;
66874;SDS011;53784;52.630;4.896;2023-04-15T04:18:37;10.13;;;6.00;;
66874;SDS011;53784;52.630;4.896;2023-04-15T04:21:02;11.73;;;5.93;;
66874;SDS011;53784;52.630;4.896;2023-04-15T04:23:27;11.98;;;6.03;;
66874;SDS011;53784;52.630;4.896;2023-04-15T04:25:52;11.15;;;5.65;;
66874;SDS011;53784;52.630;4.896;2023-04-15T04:28:17;10.80;;;6.20;;
66874;SDS011;53784;52.630;4.896;2023-04-15T04:30:42;15.17;;;6.17;;
66874;SDS011;53784;52.630;4.896;2023-04-15T04:33:08;14.20;;;5.93;;
66874;SDS011;53784;52.630;4.896;2023-04-15T04:35:33;12.80;;;5.90;;
66874;SDS011;53784;52.630;4.896;2023-04-15T04:38:01;12.02;;;5.95;;
66874;SDS011;53784;52.630;4.896;2023-04-15T04:40:26;10.50;;;5.80;;
66874;SDS011;53784;52.630;4.896;2023-04-15T04:42:52;11.93;;;6.18;;
66874;SDS011;53784;52.630;4.896;2023-04-15T04:45:17;12.98;;;6.30;;
66874;SDS011;53784;52.630;4.896;2023-04-15T04:47:42;14.73;;;6.40;;
66874;SDS011;53784;52.630;4.896;2023-04-15T04:50:07;12.80;;;5.70;;
66874;SDS011;53784;52.630;4.896;2023-04-15T04:52:33;13.20;;;5.72;;
66874;SDS011;53784;52.630;4.896;2023-04-15T04:54:58;13.00;;;6.18;;
66874;SDS011;53784;52.630;4.896;2023-04-15T04:57:23;13.53;;;6.13;;
66874;SDS011;53784;52.630;4.896;2023-04-15T04:59:48;14.30;;;6.77;;
66874;SDS011;53784;52.630;4.896;2023-04-15T05:02:13;11.67;;;6.37;;
66874;SDS011;53784;52.630;4.896;2023-04-15T05:04:38;11.33;;;6.30;;
66874;SDS011;53784;52.630;4.896;2023-04-15T05:07:05;13.88;;;6.60;;
66874;SDS011;53784;52.630;4.896;2023-04-15T05:09:30;12.18;;;6.63;;
66874;SDS011;53784;52.630;4.896;2023-04-15T05:11:56;15.32;;;6.57;;
66874;SDS011;53784;52.630;4.896;2023-04-15T05:14:22;12.23;;;6.63;;
66874;SDS011;53784;52.630;4.896;2023-04-15T05:16:47;14.23;;;7.00;;
66874;SDS011;53784;52.630;4.896;2023-04-15T05:19:12;13.97;;;6.63;;
66874;SDS011;53784;52.630;4.896;2023-04-15T05:21:37;12.97;;;6.53;;
66874;SDS011;53784;52.630;4.896;2023-04-15T05:24:02;13.13;;;6.68;;
66874;SDS011;53784;52.630;4.896;2023-04-15T05:26:28;13.18;;;6.45;;
66874;SDS011;53784;52.630;4.896;2023-04-15T05:28:54;15.13;;;6.68;;
66874;SDS011;53784;52.630;4.896;2023-04-15T05:31:19;13.03;;;6.60;;
66874;SDS011;53784;52.630;4.896;2023-04-15T05:33:44;12.98;;;6.30;;
66874;SDS011;53784;52.630;4.896;2023-04-15T05:36:10;13.77;;;6.50;;
66874;SDS011;53784;52.630;4.896;2023-04-15T05:38:36;14.25;;;6.93;;
66874;SDS011;53784;52.630;4.896;2023-04-15T05:41:01;15.73;;;9.23;;
66874;SDS011;53784;52.630;4.896;2023-04-15T05:43:26;16.70;;;9.30;;
66874;SDS011;53784;52.630;4.896;2023-04-15T05:45:51;12.98;;;7.32;;
66874;SDS011;53784;52.630;4.896;2023-04-15T05:48:17;14.40;;;8.30;;
66874;SDS011;53784;52.630;4.896;2023-04-15T05:50:42;14.27;;;8.97;;
66874;SDS011;53784;52.630;4.896;2023-04-15T05:53:07;15.95;;;10.13;;
66874;SDS011;53784;52.630;4.896;2023-04-15T05:55:33;15.93;;;9.80;;
66874;SDS011;53784;52.630;4.896;2023-04-15T05:57:58;14.38;;;9.20;;
66874;SDS011;53784;52.630;4.896;2023-04-15T06:00:23;20.00;;;12.00;;
66874;SDS011;53784;52.630;4.896;2023-04-15T06:02:48;13.57;;;8.70;;
66874;SDS011;53784;52.630;4.896;2023-04-15T06:05:13;22.80;;;13.83;;
66874;SDS011;53784;52.630;4.896;2023-04-15T06:07:39;20.98;;;13.75;;
66874;SDS011;53784;52.630;4.896;2023-04-15T06:10:04;13.93;;;9.00;;
66874;SDS011;53784;52.630;4.896;2023-04-15T06:12:29;12.57;;;7.75;;
66874;SDS011;53784;52.630;4.896;2023-04-15T06:14:55;15.97;;;12.60;;
66874;SDS011;53784;52.630;4.896;2023-04-15T06:17:20;12.80;;;9.70;;
66874;SDS011;53784;52.630;4.896;2023-04-15T06:19:46;12.53;;;7.83;;
66874;SDS011;53784;52.630;4.896;2023-04-15T06:22:11;15.83;;;10.80;;
66874;SDS011;53784;52.630;4.896;2023-04-15T06:24:36;15.67;;;11.83;;
66874;SDS011;53784;52.630;4.896;2023-04-15T06:27:01;15.63;;;11.40;;
66874;SDS011;53784;52.630;4.896;2023-04-15T06:29:27;16.65;;;11.45;;
66874;SDS011;53784;52.630;4.896;2023-04-15T06:31:52;11.02;;;7.90;;
66874;SDS011;53784;52.630;4.896;2023-04-15T06:34:17;10.37;;;8.33;;
66874;SDS011;53784;52.630;4.896;2023-04-15T06:36:42;11.73;;;9.67;;
66874;SDS011;53784;52.630;4.896;2023-04-15T06:39:08;20.90;;;18.50;;
66874;SDS011;53784;52.630;4.896;2023-04-15T06:41:33;17.13;;;15.32;;
66874;SDS011;53784;52.630;4.896;2023-04-15T06:43:59;12.82;;;9.60;;
66874;SDS011;53784;52.630;4.896;2023-04-15T06:46:24;11.93;;;9.00;;
66874;SDS011;53784;52.630;4.896;2023-04-15T06:48:50;11.07;;;9.07;;
66874;SDS011;53784;52.630;4.896;2023-04-15T06:51:16;9.30;;;7.20;;
66874;SDS011;53784;52.630;4.896;2023-04-15T06:53:41;11.27;;;8.63;;
66874;SDS011;53784;52.630;4.896;2023-04-15T06:56:08;9.30;;;7.18;;
66874;SDS011;53784;52.630;4.896;2023-04-15T06:58:33;9.57;;;7.57;;
66874;SDS011;53784;52.630;4.896;2023-04-15T07:00:58;10.10;;;7.23;;
66874;SDS011;53784;52.630;4.896;2023-04-15T07:03:24;11.25;;;7.50;;
66874;SDS011;53784;52.630;4.896;2023-04-15T07:05:49;9.90;;;6.63;;
66874;SDS011;53784;52.630;4.896;2023-04-15T07:08:14;8.77;;;6.28;;
66874;SDS011;53784;52.630;4.896;2023-04-15T07:10:39;7.67;;;6.10;;
66874;SDS011;53784;52.630;4.896;2023-04-15T07:13:05;8.43;;;6.00;;
66874;SDS011;53784;52.630;4.896;2023-04-15T07:15:32;7.82;;;6.05;;
66874;SDS011;53784;52.630;4.896;2023-04-15T07:17:57;7.70;;;6.47;;
66874;SDS011;53784;52.630;4.896;2023-04-15T07:20:23;8.23;;;6.60;;
66874;SDS011;53784;52.630;4.896;2023-04-15T07:22:48;8.20;;;6.70;;
66874;SDS011;53784;52.630;4.896;2023-04-15T07:25:13;9.00;;;6.97;;
66874;SDS011;53784;52.630;4.896;2023-04-15T07:27:38;6.47;;;5.20;;
66874;SDS011;53784;52.630;4.896;2023-04-15T07:30:04;7.17;;;5.67;;
66874;SDS011;53784;52.630;4.896;2023-04-15T07:32:29;7.82;;;5.88;;
66874;SDS011;53784;52.630;4.896;2023-04-15T07:34:55;6.70;;;4.82;;
66874;SDS011;53784;52.630;4.896;2023-04-15T07:37:20;6.47;;;4.72;;
66874;SDS011;53784;52.630;4.896;2023-04-15T07:39:45;7.00;;;5.90;;
66874;SDS011;53784;52.630;4.896;2023-04-15T07:42:11;7.23;;;5.80;;
66874;SDS011;53784;52.630;4.896;2023-04-15T07:44:36;6.87;;;5.07;;
66874;SDS011;53784;52.630;4.896;2023-04-15T07:47:01;6.70;;;5.67;;
66874;SDS011;53784;52.630;4.896;2023-04-15T07:49:27;5.40;;;3.88;;
66874;SDS011;53784;52.630;4.896;2023-04-15T07:51:52;5.07;;;3.65;;
66874;SDS011;53784;52.630;4.896;2023-04-15T07:54:17;5.60;;;3.83;;
66874;SDS011;53784;52.630;4.896;2023-04-15T07:56:42;4.53;;;3.60;;
66874;SDS011;53784;52.630;4.896;2023-04-15T07:59:07;5.50;;;3.57;;
66874;SDS011;53784;52.630;4.896;2023-04-15T08:01:33;5.22;;;3.63;;
66874;SDS011;53784;52.630;4.896;2023-04-15T08:03:59;4.90;;;3.43;;
66874;SDS011;53784;52.630;4.896;2023-04-15T08:06:24;4.73;;;3.13;;
66874;SDS011;53784;52.630;4.896;2023-04-15T08:08:49;5.43;;;3.60;;
66874;SDS011;53784;52.630;4.896;2023-04-15T08:11:14;4.93;;;3.42;;
66874;SDS011;53784;52.630;4.896;2023-04-15T08:13:40;4.70;;;3.20;;
66874;SDS011;53784;52.630;4.896;2023-04-15T08:18:46;5.80;;;3.72;;
66874;SDS011;53784;52.630;4.896;2023-04-15T08:21:12;4.82;;;3.70;;
66874;SDS011;53784;52.630;4.896;2023-04-15T08:23:37;4.82;;;3.50;;
66874;SDS011;53784;52.630;4.896;2023-04-15T08:26:03;5.55;;;4.00;;
66874;SDS011;53784;52.630;4.896;2023-04-15T08:28:28;6.50;;;4.10;;
66874;SDS011;53784;52.630;4.896;2023-04-15T08:30:53;5.03;;;3.87;;
66874;SDS011;53784;52.630;4.896;2023-04-15T08:33:19;5.25;;;4.00;;
66874;SDS011;53784;52.630;4.896;2023-04-15T08:35:44;6.90;;;4.00;;
66874;SDS011;53784;52.630;4.896;2023-04-15T08:38:10;5.72;;;3.90;;
66874;SDS011;53784;52.630;4.896;2023-04-15T08:40:40;5.15;;;3.80;;
66874;SDS011;53784;52.630;4.896;2023-04-15T08:43:06;5.82;;;4.20;;
66874;SDS011;53784;52.630;4.896;2023-04-15T08:45:32;4.70;;;3.50;;
66874;SDS011;53784;52.630;4.896;2023-04-15T08:47:58;5.53;;;4.10;;
66874;SDS011;53784;52.630;4.896;2023-04-15T08:50:24;5.93;;;3.92;;
66874;SDS011;53784;52.630;4.896;2023-04-15T08:52:52;4.88;;;3.70;;
66874;SDS011;53784;52.630;4.896;2023-04-15T08:55:17;5.90;;;3.67;;
66874;SDS011;53784;52.630;4.896;2023-04-15T08:57:43;5.18;;;3.60;;
66874;SDS011;53784;52.630;4.896;2023-04-15T09:00:09;6.68;;;4.45;;
66874;SDS011;53784;52.630;4.896;2023-04-15T09:02:34;6.40;;;4.50;;
66874;SDS011;53784;52.630;4.896;2023-04-15T09:04:59;6.45;;;4.45;;
66874;SDS011;53784;52.630;4.896;2023-04-15T09:07:25;6.03;;;4.10;;
66874;SDS011;53784;52.630;4.896;2023-04-15T09:09:50;6.35;;;4.45;;
66874;SDS011;53784;52.630;4.896;2023-04-15T09:12:16;5.68;;;3.88;;
66874;SDS011;53784;52.630;4.896;2023-04-15T09:14:44;6.10;;;4.33;;
66874;SDS011;53784;52.630;4.896;2023-04-15T09:17:09;5.85;;;3.80;;
66874;SDS011;53784;52.630;4.896;2023-04-15T09:19:35;5.20;;;4.03;;
66874;SDS011;53784;52.630;4.896;2023-04-15T09:22:01;5.53;;;3.40;;
66874;SDS011;53784;52.630;4.896;2023-04-15T09:24:32;4.77;;;3.27;;
66874;SDS011;53784;52.630;4.896;2023-04-15T09:26:58;4.93;;;3.55;;
66874;SDS011;53784;52.630;4.896;2023-04-15T09:29:24;4.70;;;2.92;;
66874;SDS011;53784;52.630;4.896;2023-04-15T09:31:50;4.60;;;3.47;;
66874;SDS011;53784;52.630;4.896;2023-04-15T09:34:16;4.57;;;3.50;;
66874;SDS011;53784;52.630;4.896;2023-04-15T09:36:52;4.70;;;3.40;;
66874;SDS011;53784;52.630;4.896;2023-04-15T09:39:18;5.38;;;3.60;;
66874;SDS011;53784;52.630;4.896;2023-04-15T09:41:43;6.50;;;4.03;;
66874;SDS011;53784;52.630;4.896;2023-04-15T09:44:22;6.28;;;3.70;;
66874;SDS011;53784;52.630;4.896;2023-04-15T09:46:47;5.80;;;3.92;;
66874;SDS011;53784;52.630;4.896;2023-04-15T09:49:12;6.50;;;4.20;;
66874;SDS011;53784;52.630;4.896;2023-04-15T09:51:37;6.23;;;4.43;;
66874;SDS011;53784;52.630;4.896;2023-04-15T09:54:03;6.13;;;3.97;;
66874;SDS011;53784;52.630;4.896;2023-04-15T09:56:31;7.68;;;3.85;;
66874;SDS011;53784;52.630;4.896;2023-04-15T10:01:23;6.70;;;3.70;;
66874;SDS011;53784;52.630;4.896;2023-04-15T10:03:48;5.10;;;3.40;;
66874;SDS011;53784;52.630;4.896;2023-04-15T10:06:14;4.85;;;3.00;;
66874;SDS011;53784;52.630;4.896;2023-04-15T10:08:40;5.15;;;2.78;;
66874;SDS011;53784;52.630;4.896;2023-04-15T10:11:05;4.97;;;3.20;;
66874;SDS011;53784;52.630;4.896;2023-04-15T10:13:31;4.70;;;2.47;;
66874;SDS011;53784;52.630;4.896;2023-04-15T10:18:31;3.95;;;2.75;;
66874;SDS011;53784;52.630;4.896;2023-04-15T10:20:57;3.70;;;2.17;;
66874;SDS011;53784;52.630;4.896;2023-04-15T10:23:24;4.05;;;2.30;;
66874;SDS011;53784;52.630;4.896;2023-04-15T10:25:50;4.72;;;2.40;;
66874;SDS011;53784;52.630;4.896;2023-04-15T10:28:16;3.10;;;2.00;;
66874;SDS011;53784;52.630;4.896;2023-04-15T10:30:41;4.07;;;2.00;;
66874;SDS011;53784;52.630;4.896;2023-04-15T10:33:07;4.20;;;2.00;;
66874;SDS011;53784;52.630;4.896;2023-04-15T10:35:33;3.50;;;2.00;;
66874;SDS011;53784;52.630;4.896;2023-04-15T10:37:58;3.30;;;2.00;;
66874;SDS011;53784;52.630;4.896;2023-04-15T10:40:24;4.50;;;2.05;;
66874;SDS011;53784;52.630;4.896;2023-04-15T10:42:51;4.20;;;2.30;;
66874;SDS011;53784;52.630;4.896;2023-04-15T10:45:17;4.07;;;2.33;;
66874;SDS011;53784;52.630;4.896;2023-04-15T10:47:42;3.63;;;2.05;;
66874;SDS011;53784;52.630;4.896;2023-04-15T10:50:08;4.20;;;2.43;;
66874;SDS011;53784;52.630;4.896;2023-04-15T10:52:33;4.03;;;2.70;;
66874;SDS011;53784;52.630;4.896;2023-04-15T10:55:02;4.20;;;2.60;;
66874;SDS011;53784;52.630;4.896;2023-04-15T11:02:23;4.93;;;2.50;;
66874;SDS011;53784;52.630;4.896;2023-04-15T11:05:02;4.68;;;2.58;;
66874;SDS011;53784;52.630;4.896;2023-04-15T11:07:34;4.10;;;2.75;;
66874;SDS011;53784;52.630;4.896;2023-04-15T11:09:59;4.53;;;2.60;;
66874;SDS011;53784;52.630;4.896;2023-04-15T11:12:35;4.57;;;2.60;;
66874;SDS011;53784;52.630;4.896;2023-04-15T11:15:23;5.35;;;2.40;;
66874;SDS011;53784;52.630;4.896;2023-04-15T11:17:46;3.72;;;2.38;;
66874;SDS011;53784;52.630;4.896;2023-04-15T11:20:13;5.13;;;2.60;;
66874;SDS011;53784;52.630;4.896;2023-04-15T11:22:45;5.25;;;2.50;;
66874;SDS011;53784;52.630;4.896;2023-04-15T11:25:15;4.57;;;2.45;;
66874;SDS011;53784;52.630;4.896;2023-04-15T11:27:45;5.72;;;2.65;;
66874;SDS011;53784;52.630;4.896;2023-04-15T11:30:18;5.70;;;2.85;;
66874;SDS011;53784;52.630;4.896;2023-04-15T11:32:44;8.07;;;4.78;;
66874;SDS011;53784;52.630;4.896;2023-04-15T11:35:09;5.50;;;2.90;;
66874;SDS011;53784;52.630;4.896;2023-04-15T11:37:34;5.63;;;2.35;;
66874;SDS011;53784;52.630;4.896;2023-04-15T11:40:01;4.43;;;2.10;;
66874;SDS011;53784;52.630;4.896;2023-04-15T11:42:26;4.82;;;2.00;;
66874;SDS011;53784;52.630;4.896;2023-04-15T11:44:59;5.18;;;2.22;;
66874;SDS011;53784;52.630;4.896;2023-04-15T11:47:30;4.32;;;2.30;;
66874;SDS011;53784;52.630;4.896;2023-04-15T11:49:55;4.28;;;2.00;;
66874;SDS011;53784;52.630;4.896;2023-04-15T11:52:20;3.27;;;1.73;;
66874;SDS011;53784;52.630;4.896;2023-04-15T11:54:45;4.43;;;2.10;;
66874;SDS011;53784;52.630;4.896;2023-04-15T11:57:11;3.67;;;1.90;;
66874;SDS011;53784;52.630;4.896;2023-04-15T11:59:42;4.37;;;2.10;;
66874;SDS011;53784;52.630;4.896;2023-04-15T12:02:11;4.70;;;2.03;;
66874;SDS011;53784;52.630;4.896;2023-04-15T12:07:05;3.70;;;2.05;;
66874;SDS011;53784;52.630;4.896;2023-04-15T12:09:31;4.72;;;2.20;;
66874;SDS011;53784;52.630;4.896;2023-04-15T12:14:35;5.17;;;2.30;;
66874;SDS011;53784;52.630;4.896;2023-04-15T12:17:02;6.13;;;2.60;;
66874;SDS011;53784;52.630;4.896;2023-04-15T12:19:29;4.93;;;2.35;;
66874;SDS011;53784;52.630;4.896;2023-04-15T12:22:00;5.32;;;2.33;;
66874;SDS011;53784;52.630;4.896;2023-04-15T12:24:25;6.95;;;2.20;;
66874;SDS011;53784;52.630;4.896;2023-04-15T12:26:54;4.27;;;1.77;;
66874;SDS011;53784;52.630;4.896;2023-04-15T12:29:24;4.82;;;1.77;;
66874;SDS011;53784;52.630;4.896;2023-04-15T12:31:53;4.35;;;1.92;;
66874;SDS011;53784;52.630;4.896;2023-04-15T12:34:34;4.70;;;2.00;;
66874;SDS011;53784;52.630;4.896;2023-04-15T12:37:00;5.18;;;1.95;;
66874;SDS011;53784;52.630;4.896;2023-04-15T12:39:27;4.22;;;2.20;;
66874;SDS011;53784;52.630;4.896;2023-04-15T12:41:52;4.28;;;1.90;;
66874;SDS011;53784;52.630;4.896;2023-04-15T12:44:17;3.93;;;1.90;;
66874;SDS011;53784;52.630;4.896;2023-04-15T12:46:43;9.48;;;6.25;;
66874;SDS011;53784;52.630;4.896;2023-04-15T12:49:08;6.13;;;3.80;;
66874;SDS011;53784;52.630;4.896;2023-04-15T12:51:33;5.27;;;1.90;;
66874;SDS011;53784;52.630;4.896;2023-04-15T12:53:58;5.30;;;2.03;;
66874;SDS011;53784;52.630;4.896;2023-04-15T12:56:24;4.25;;;1.75;;
66874;SDS011;53784;52.630;4.896;2023-04-15T12:58:49;3.73;;;1.90;;
66874;SDS011;53784;52.630;4.896;2023-04-15T13:01:14;4.40;;;1.50;;
66874;SDS011;53784;52.630;4.896;2023-04-15T13:03:39;4.57;;;1.40;;
66874;SDS011;53784;52.630;4.896;2023-04-15T13:06:05;4.43;;;1.45;;
66874;SDS011;53784;52.630;4.896;2023-04-15T13:08:31;4.25;;;1.60;;
66874;SDS011;53784;52.630;4.896;2023-04-15T13:10:56;8.57;;;4.35;;
66874;SDS011;53784;52.630;4.896;2023-04-15T13:13:21;5.30;;;1.60;;
66874;SDS011;53784;52.630;4.896;2023-04-15T13:15:46;3.60;;;1.27;;
66874;SDS011;53784;52.630;4.896;2023-04-15T13:18:11;4.03;;;1.20;;
66874;SDS011;53784;52.630;4.896;2023-04-15T13:20:37;4.35;;;1.30;;
66874;SDS011;53784;52.630;4.896;2023-04-15T13:23:02;4.27;;;1.27;;
66874;SDS011;53784;52.630;4.896;2023-04-15T13:25:27;4.50;;;1.50;;
66874;SDS011;53784;52.630;4.896;2023-04-15T13:27:52;8.98;;;3.53;;
66874;SDS011;53784;52.630;4.896;2023-04-15T13:30:17;5.80;;;1.97;;
66874;SDS011;53784;52.630;4.896;2023-04-15T13:32:43;5.70;;;1.33;;
66874;SDS011;53784;52.630;4.896;2023-04-15T13:35:08;6.78;;;1.58;;
66874;SDS011;53784;52.630;4.896;2023-04-15T13:37:33;6.45;;;2.80;;
66874;SDS011;53784;52.630;4.896;2023-04-15T13:39:58;4.50;;;1.50;;
66874;SDS011;53784;52.630;4.896;2023-04-15T13:42:23;5.47;;;1.63;;
66874;SDS011;53784;52.630;4.896;2023-04-15T13:44:49;6.32;;;1.70;;
66874;SDS011;53784;52.630;4.896;2023-04-15T13:47:18;6.18;;;1.65;;
66874;SDS011;53784;52.630;4.896;2023-04-15T13:49:43;6.50;;;1.45;;
66874;SDS011;53784;52.630;4.896;2023-04-15T13:52:09;5.05;;;1.80;;
66874;SDS011;53784;52.630;4.896;2023-04-15T13:54:35;5.57;;;1.67;;
66874;SDS011;53784;52.630;4.896;2023-04-15T13:57:00;5.60;;;1.70;;
66874;SDS011;53784;52.630;4.896;2023-04-15T13:59:26;4.75;;;1.80;;
66874;SDS011;53784;52.630;4.896;2023-04-15T14:01:51;5.30;;;2.38;;
66874;SDS011;53784;52.630;4.896;2023-04-15T14:04:16;6.47;;;2.55;;
66874;SDS011;53784;52.630;4.896;2023-04-15T14:06:42;5.60;;;1.73;;
66874;SDS011;53784;52.630;4.896;2023-04-15T14:09:07;8.55;;;2.00;;
66874;SDS011;53784;52.630;4.896;2023-04-15T14:11:32;8.18;;;2.30;;
66874;SDS011;53784;52.630;4.896;2023-04-15T14:13:59;4.85;;;1.58;;
66874;SDS011;53784;52.630;4.896;2023-04-15T14:16:24;6.20;;;1.90;;
66874;SDS011;53784;52.630;4.896;2023-04-15T14:18:49;7.30;;;1.37;;
66874;SDS011;53784;52.630;4.896;2023-04-15T14:21:15;4.73;;;1.50;;
66874;SDS011;53784;52.630;4.896;2023-04-15T14:23:40;4.57;;;1.40;;
66874;SDS011;53784;52.630;4.896;2023-04-15T14:26:05;5.43;;;1.43;;
66874;SDS011;53784;52.630;4.896;2023-04-15T14:28:30;5.57;;;1.30;;
66874;SDS011;53784;52.630;4.896;2023-04-15T14:30:56;3.92;;;1.40;;
66874;SDS011;53784;52.630;4.896;2023-04-15T14:33:21;9.13;;;1.50;;
66874;SDS011;53784;52.630;4.896;2023-04-15T14:35:48;4.88;;;1.50;;
66874;SDS011;53784;52.630;4.896;2023-04-15T14:38:13;7.10;;;1.40;;
66874;SDS011;53784;52.630;4.896;2023-04-15T14:40:39;5.30;;;1.25;;
66874;SDS011;53784;52.630;4.896;2023-04-15T14:43:04;4.53;;;1.25;;
66874;SDS011;53784;52.630;4.896;2023-04-15T14:45:29;5.23;;;1.37;;
66874;SDS011;53784;52.630;4.896;2023-04-15T14:47:55;4.77;;;1.40;;
66874;SDS011;53784;52.630;4.896;2023-04-15T14:50:20;6.63;;;1.38;;
66874;SDS011;53784;52.630;4.896;2023-04-15T14:52:46;6.38;;;1.77;;